createdAt,value
2023-01-04T00:01:34.223Z,102895.35
2023-01-04T00:04:02.238Z,102891.91
2023-01-04T00:06:30.283Z,102898.13
2023-01-04T00:08:58.054Z,102894.70
2023-01-04T00:11:25.977Z,102892.41
2023-01-04T00:13:54.690Z,102903.69
2023-01-04T00:16:24.102Z,102896.00
2023-01-04T00:18:52.453Z,102901.69
2023-01-04T00:21:27.693Z,102899.11
2023-01-04T00:23:57.418Z,102905.91
2023-01-04T00:26:27.023Z,102905.91
2023-01-04T00:28:56.303Z,102908.75
2023-01-04T00:31:24.420Z,102903.06
2023-01-04T00:33:54.819Z,102903.36
2023-01-04T00:36:22.687Z,102900.25
2023-01-04T00:39:08.964Z,102894.86
2023-01-04T00:42:03.416Z,102900.55
2023-01-04T00:44:31.546Z,102893.42
2023-01-04T00:47:00.159Z,102895.38
2023-01-04T00:49:28.363Z,102892.27
2023-01-04T00:51:56.137Z,102881.78
2023-01-04T00:54:24.113Z,102876.09
2023-01-04T00:56:52.359Z,102867.59
2023-01-04T00:59:20.932Z,102872.69
2023-01-04T01:01:49.166Z,102877.49
2023-01-04T01:04:18.739Z,102879.78
2023-01-04T01:06:46.584Z,102891.49
2023-01-04T01:09:14.318Z,102896.55
2023-01-04T01:11:42.548Z,102892.34
2023-01-04T01:14:11.212Z,102905.38
2023-01-04T01:16:54.340Z,102901.69
2023-01-04T01:19:22.521Z,102902.54
2023-01-04T01:21:50.340Z,102902.84
2023-01-04T01:24:19.233Z,102905.42
2023-01-04T01:26:47.061Z,102911.66
2023-01-04T01:29:14.955Z,102895.19
2023-01-04T01:31:42.981Z,102895.77
2023-01-04T01:34:10.826Z,102899.20
2023-01-04T01:36:38.564Z,102898.68
2023-01-04T01:39:07.131Z,102891.00
2023-01-04T01:41:35.717Z,102883.09
2023-01-04T01:44:03.361Z,102899.56
2023-01-04T01:46:44.023Z,102897.31
2023-01-04T01:49:14.635Z,102900.45
2023-01-04T01:51:42.736Z,102908.95
2023-01-04T01:54:14.173Z,102904.73
2023-01-04T01:56:42.333Z,102911.23
2023-01-04T01:59:10.815Z,102903.91
2023-01-04T02:01:38.760Z,102906.79
2023-01-04T02:04:06.827Z,102910.23
2023-01-04T02:06:36.836Z,102904.54
2023-01-04T02:09:04.671Z,102908.52
2023-01-04T02:11:32.550Z,102910.52
2023-01-04T02:14:18.693Z,102903.98
2023-01-04T02:17:17.663Z,102901.98
2023-01-04T02:19:45.416Z,102899.70
2023-01-04T02:22:24.854Z,102898.81
2023-01-04T02:25:04.411Z,102890.28
2023-01-04T02:27:35.105Z,102894.56
2023-01-04T02:30:12.668Z,102891.49
2023-01-04T02:32:46.883Z,102884.66
2023-01-04T02:35:14.544Z,102892.30
2023-01-04T02:38:06.617Z,102888.09
2023-01-04T02:40:57.809Z,102888.35
2023-01-04T02:44:14.839Z,102891.49
2023-01-04T02:46:50.410Z,102888.65
2023-01-04T02:49:36.775Z,102893.19
2023-01-04T02:52:04.619Z,102900.55
2023-01-04T02:54:33.613Z,102894.63
2023-01-04T02:57:34.387Z,102894.30
2023-01-04T03:00:22.334Z,102897.70
2023-01-04T03:03:13.675Z,102896.33
2023-01-04T03:06:07.651Z,102889.53
2023-01-04T03:08:56.736Z,102883.84
2023-01-04T03:11:43.027Z,102888.09
2023-01-04T03:14:30.785Z,102880.73
2023-01-04T03:17:01.771Z,102893.52
2023-01-04T03:19:48.073Z,102890.38
2023-01-04T03:22:36.180Z,102889.30
2023-01-04T03:25:22.407Z,102885.31
2023-01-04T03:28:08.717Z,102882.47
2023-01-04T03:30:55.743Z,102874.23
2023-01-04T03:33:41.960Z,102880.21
2023-01-04T03:36:39.887Z,102869.42
2023-01-04T03:39:54.898Z,102872.79
2023-01-04T03:42:48.371Z,102858.59
2023-01-04T03:45:39.906Z,102857.48
2023-01-04T03:48:46.176Z,102840.71
2023-01-04T03:51:27.050Z,102847.55
2023-01-04T03:53:57.634Z,102831.88
2023-01-04T03:56:25.495Z,102828.45
2023-01-04T03:58:53.276Z,102824.76
2023-01-04T04:01:21.426Z,102815.41
2023-01-04T04:04:07.755Z,102818.55
2023-01-04T04:06:54.165Z,102818.80
2023-01-04T04:09:22.060Z,102817.95
2023-01-04T04:11:49.848Z,102821.88
2023-01-04T04:14:17.663Z,102823.02
2023-01-04T04:16:45.769Z,102829.27
2023-01-04T04:19:13.582Z,102830.41
2023-01-04T04:21:41.492Z,102820.18
2023-01-04T04:24:09.588Z,102810.24
2023-01-04T04:26:37.420Z,102823.29
2023-01-04T04:29:05.148Z,102821.29
2023-01-04T04:31:33.163Z,102820.73
2023-01-04T04:34:00.956Z,102816.16
2023-01-04T04:36:28.669Z,102819.85
2023-01-04T04:38:56.419Z,102822.37
2023-01-04T04:41:39.668Z,102828.62
2023-01-04T04:44:09.002Z,102826.62
2023-01-04T04:46:36.858Z,102825.97
2023-01-04T04:49:04.930Z,102826.26
2023-01-04T04:51:32.840Z,102826.81
2023-01-04T04:54:00.772Z,102821.39
2023-01-04T04:56:28.627Z,102831.59
2023-01-04T04:58:56.379Z,102831.00
2023-01-04T05:01:24.363Z,102829.01
2023-01-04T05:03:52.261Z,102825.25
2023-01-04T05:06:20.073Z,102820.08
2023-01-04T05:08:47.791Z,102810.41
2023-01-04T05:11:15.662Z,102825.12
2023-01-04T05:13:43.423Z,102824.01
2023-01-04T05:16:11.276Z,102823.41
2023-01-04T05:18:39.090Z,102834.17
2023-01-04T05:21:07.015Z,102829.89
2023-01-04T05:23:34.774Z,102839.80
2023-01-04T05:26:02.745Z,102827.54
2023-01-04T05:28:30.513Z,102825.57
2023-01-04T05:30:58.404Z,102827.21
2023-01-04T05:33:28.068Z,102826.03
2023-01-04T05:35:56.583Z,102827.18
2023-01-04T05:38:24.587Z,102830.25
2023-01-04T05:40:52.477Z,102824.82
2023-01-04T05:43:20.730Z,102825.97
2023-01-04T05:45:50.209Z,102831.03
2023-01-04T05:48:18.521Z,102822.53
2023-01-04T05:50:47.048Z,102831.88
2023-01-04T05:53:15.318Z,102830.71
2023-01-04T05:55:43.114Z,102825.57
2023-01-04T05:58:10.945Z,102828.42
2023-01-04T06:00:38.769Z,102830.12
2023-01-04T06:03:06.846Z,102833.55
2023-01-04T06:05:34.792Z,102837.51
2023-01-04T06:08:02.588Z,102826.72
2023-01-04T06:10:30.395Z,102836.33
2023-01-04T06:12:58.185Z,102838.91
2023-01-04T06:15:26.039Z,102839.99
2023-01-04T06:17:53.912Z,102838.91
2023-01-04T06:20:21.775Z,102828.65
2023-01-04T06:22:49.568Z,102830.64
2023-01-04T06:25:17.360Z,102831.49
2023-01-04T06:27:45.193Z,102826.42
2023-01-04T06:30:13.068Z,102829.56
2023-01-04T06:32:40.795Z,102830.41
2023-01-04T06:35:08.839Z,102837.28
2023-01-04T06:37:37.185Z,102831.33
2023-01-04T06:40:05.745Z,102833.06
2023-01-04T06:42:48.651Z,102834.50
2023-01-04T06:45:17.087Z,102840.52
2023-01-04T06:47:45.009Z,102844.77
2023-01-04T06:50:13.035Z,102844.51
2023-01-04T06:52:40.996Z,102843.91
2023-01-04T06:55:10.578Z,102849.87
2023-01-04T06:57:38.776Z,102833.39
2023-01-04T07:00:07.728Z,102826.52
2023-01-04T07:02:35.732Z,102839.83
2023-01-04T07:05:03.956Z,102840.45
2023-01-04T07:07:31.950Z,102835.02
2023-01-04T07:10:03.874Z,102831.95
2023-01-04T07:12:37.883Z,102838.20
2023-01-04T07:15:38.901Z,102839.08
2023-01-04T07:17:54.169Z,102828.95
2023-01-04T07:20:21.958Z,102831.79
2023-01-04T07:22:49.868Z,102830.19
2023-01-04T07:25:17.781Z,102833.59
2023-01-04T07:27:45.708Z,102829.95
2023-01-04T07:30:14.029Z,102829.95
2023-01-04T07:32:41.900Z,102824.89
2023-01-04T07:35:10.366Z,102822.34
2023-01-04T07:37:38.420Z,102812.76
2023-01-04T07:40:07.199Z,102819.63
2023-01-04T07:42:35.185Z,102819.20
2023-01-04T07:45:03.240Z,102829.98
2023-01-04T07:47:31.323Z,102827.21
2023-01-04T07:49:59.907Z,102828.06
2023-01-04T07:52:28.466Z,102827.77
2023-01-04T07:54:56.459Z,102834.83
2023-01-04T07:57:24.503Z,102841.04
2023-01-04T07:59:53.061Z,102847.28
2023-01-04T08:02:21.596Z,102848.13
2023-01-04T08:04:49.758Z,102833.59
2023-01-04T08:07:18.003Z,102833.91
2023-01-04T08:09:45.867Z,102835.61
2023-01-04T08:12:14.013Z,102838.16
2023-01-04T08:14:41.928Z,102837.61
2023-01-04T08:17:09.977Z,102839.63
2023-01-04T08:19:37.956Z,102839.96
2023-01-04T08:22:06.202Z,102836.01
2023-01-04T08:24:34.365Z,102843.69
2023-01-04T08:27:02.305Z,102844.02
2023-01-04T08:29:34.739Z,102846.83
2023-01-04T08:32:02.700Z,102842.34
2023-01-04T08:34:31.276Z,102839.83
2023-01-04T08:36:59.811Z,102840.98
2023-01-04T08:39:30.701Z,102837.31
2023-01-04T08:42:31.532Z,102839.60
2023-01-04T08:44:46.836Z,102839.60
2023-01-04T08:47:14.776Z,102843.30
2023-01-04T08:49:43.080Z,102832.51
2023-01-04T08:52:11.473Z,102835.91
2023-01-04T08:54:39.464Z,102836.20
2023-01-04T08:57:07.507Z,102831.36
2023-01-04T08:59:35.550Z,102833.09
2023-01-04T09:02:06.008Z,102820.27
2023-01-04T09:04:34.460Z,102826.52
2023-01-04T09:07:02.452Z,102831.95
2023-01-04T09:09:31.289Z,102834.80
2023-01-04T09:12:00.898Z,102837.34
2023-01-04T09:14:29.067Z,102837.34
2023-01-04T09:16:56.996Z,102829.10
2023-01-04T09:19:25.116Z,102827.70
2023-01-04T09:21:53.147Z,102823.13
2023-01-04T09:24:21.304Z,102824.27
2023-01-04T09:26:49.403Z,102823.71
2023-01-04T09:29:17.593Z,102827.70
2023-01-04T09:31:45.564Z,102830.25
2023-01-04T09:34:16.077Z,102821.72
2023-01-04T09:36:46.592Z,102825.70
2023-01-04T09:39:21.535Z,102829.98
2023-01-04T09:42:06.005Z,102829.95
2023-01-04T09:45:12.294Z,102831.10
2023-01-04T09:47:43.304Z,102837.09
2023-01-04T09:50:30.512Z,102841.34
2023-01-04T09:53:02.262Z,102835.68
2023-01-04T09:55:41.252Z,102829.40
2023-01-04T09:58:13.357Z,102833.39
2023-01-04T10:00:46.571Z,102824.30
2023-01-04T10:03:35.891Z,102818.91
2023-01-04T10:06:04.404Z,102809.78
2023-01-04T10:08:32.877Z,102802.39
2023-01-04T10:11:10.046Z,102812.07
2023-01-04T10:13:47.941Z,102802.95
2023-01-04T10:22:49.127Z,102789.05
2023-01-04T10:25:27.506Z,102792.16
2023-01-04T10:28:14.362Z,102790.16
2023-01-04T10:30:45.303Z,102787.88
2023-01-04T10:33:20.668Z,102772.21
2023-01-04T10:35:49.315Z,102769.40
2023-01-04T10:38:19.458Z,102768.23
2023-01-04T10:40:48.757Z,102770.22
2023-01-04T10:44:11.557Z,102768.55
2023-01-04T10:46:44.189Z,102763.13
2023-01-04T10:49:24.541Z,102748.58
2023-01-04T10:52:00.113Z,102742.36
2023-01-04T10:54:55.334Z,102746.02
2023-01-04T10:57:35.909Z,102737.78
2023-01-04T11:00:07.039Z,102748.28
2023-01-04T11:02:47.179Z,102743.73
2023-01-04T11:05:37.548Z,102747.70
2023-01-04T11:08:23.983Z,102729.22
2023-01-04T11:10:56.953Z,102737.46
2023-01-04T11:13:25.364Z,102735.20
2023-01-04T11:15:53.648Z,102735.20
2023-01-04T11:18:21.601Z,102728.07
2023-01-04T11:20:49.640Z,102725.78
2023-01-04T11:23:19.301Z,102721.80
2023-01-04T11:25:56.593Z,102727.19
2023-01-04T11:28:38.788Z,102729.80
2023-01-04T11:31:10.530Z,102744.59
2023-01-04T11:33:57.625Z,102728.34
2023-01-04T11:36:37.986Z,102721.24
2023-01-04T11:39:27.341Z,102701.85
2023-01-04T11:42:05.890Z,102702.70
2023-01-04T11:44:34.921Z,102713.27
2023-01-04T11:47:10.192Z,102698.68
2023-01-04T11:49:38.123Z,102696.09
2023-01-04T11:52:06.728Z,102694.10
2023-01-04T11:54:34.658Z,102684.72
2023-01-04T11:57:12.059Z,102691.26
2023-01-04T11:59:40.469Z,102688.09
2023-01-04T12:02:28.581Z,102681.55
2023-01-04T12:05:01.097Z,102680.37
2023-01-04T12:07:33.032Z,102684.91
2023-01-04T12:10:01.837Z,102681.80
2023-01-04T12:12:33.838Z,102686.62
2023-01-04T12:15:04.216Z,102678.93
2023-01-04T12:17:44.400Z,102683.15
2023-01-04T12:20:19.615Z,102680.30
2023-01-04T12:22:48.038Z,102683.15
2023-01-04T12:25:34.226Z,102677.76
2023-01-04T12:28:02.273Z,102667.45
2023-01-04T12:30:46.989Z,102660.63
2023-01-04T12:33:44.614Z,102657.48
2023-01-04T12:36:16.112Z,102646.37
2023-01-04T12:38:56.464Z,102638.65
2023-01-04T12:41:46.491Z,102630.41
2023-01-04T12:44:36.357Z,102630.31
2023-01-04T12:47:48.737Z,102634.27
2023-01-04T12:50:34.936Z,102630.87
2023-01-04T12:55:55.787Z,102614.55
2023-01-04T12:58:57.903Z,102609.42
2023-01-04T13:01:25.950Z,102610.59
2023-01-04T13:04:04.304Z,102612.27
2023-01-04T13:06:35.322Z,102609.74
2023-01-04T13:09:03.601Z,102599.45
2023-01-04T13:11:41.954Z,102593.82
2023-01-04T13:14:12.786Z,102598.11
2023-01-04T13:17:08.998Z,102597.81
2023-01-04T13:19:39.433Z,102606.34
2023-01-04T13:22:26.603Z,102594.09
2023-01-04T13:24:58.935Z,102591.77
2023-01-04T13:27:27.692Z,102585.26
2023-01-04T13:29:55.970Z,102578.98
2023-01-04T13:32:30.552Z,102588.63
2023-01-04T13:35:15.251Z,102591.73
2023-01-04T13:37:47.729Z,102595.49
2023-01-04T13:40:15.678Z,102594.31
2023-01-04T13:42:45.577Z,102589.77
2023-01-04T13:45:43.430Z,102584.67
2023-01-04T13:48:13.691Z,102570.70
2023-01-04T13:50:45.400Z,102565.31
2023-01-04T13:53:22.821Z,102559.55
2023-01-04T13:55:54.734Z,102566.98
2023-01-04T13:58:24.333Z,102553.84
2023-01-04T14:01:04.026Z,102551.84
2023-01-04T14:03:37.849Z,102552.98
2023-01-04T14:06:11.741Z,102545.53
2023-01-04T14:08:53.189Z,102542.69
2023-01-04T14:11:42.954Z,102546.41
2023-01-04T14:14:26.455Z,102545.01
2023-01-04T14:16:54.873Z,102543.83
2023-01-04T14:20:09.018Z,102545.50
2023-01-04T14:22:45.776Z,102560.34
2023-01-04T14:25:32.146Z,102560.34
2023-01-04T14:28:26.083Z,102560.02
2023-01-04T14:31:23.722Z,102566.03
2023-01-04T14:33:52.459Z,102573.13
2023-01-04T14:36:31.406Z,102560.57
2023-01-04T14:39:07.896Z,102569.14
2023-01-04T14:41:53.411Z,102580.22
2023-01-04T14:44:32.069Z,102573.68
2023-01-04T14:47:01.531Z,102580.55
2023-01-04T14:49:29.798Z,102573.42
2023-01-04T14:52:00.304Z,102578.88
2023-01-04T14:54:29.180Z,102573.75
2023-01-04T14:56:58.243Z,102560.08
2023-01-04T14:59:26.748Z,102558.61
2023-01-04T15:01:55.645Z,102553.57
2023-01-04T15:04:24.170Z,102565.51
2023-01-04T15:07:01.478Z,102557.83
2023-01-04T15:09:30.352Z,102561.20
2023-01-04T15:11:58.598Z,102557.50
2023-01-04T15:14:26.447Z,102561.78
2023-01-04T15:16:54.440Z,102563.77
2023-01-04T15:19:22.979Z,102554.06
2023-01-04T15:21:50.839Z,102554.39
2023-01-04T15:24:18.751Z,102558.97
2023-01-04T15:26:46.713Z,102555.02
2023-01-04T15:29:14.928Z,102546.74
2023-01-04T15:31:45.166Z,102541.90
2023-01-04T15:34:15.639Z,102543.90
2023-01-04T15:36:43.707Z,102544.16
2023-01-04T15:39:15.354Z,102558.71
2023-01-04T15:42:02.044Z,102557.89
2023-01-04T15:44:29.922Z,102567.02
2023-01-04T15:47:00.459Z,102559.63
2023-01-04T15:49:30.972Z,102551.65
2023-01-04T15:51:58.865Z,102544.81
2023-01-04T15:54:28.002Z,102548.24
2023-01-04T15:57:01.982Z,102552.27
2023-01-04T15:59:30.039Z,102557.95
2023-01-04T16:01:58.713Z,102556.81
2023-01-04T16:04:28.101Z,102552.79
2023-01-04T16:06:56.261Z,102557.95
2023-01-04T16:09:24.434Z,102560.80
2023-01-04T16:12:13.772Z,102553.93
2023-01-04T16:15:00.100Z,102549.95
2023-01-04T16:17:28.363Z,102549.95
2023-01-04T16:19:56.265Z,102546.55
2023-01-04T16:22:24.498Z,102556.48
2023-01-04T16:25:22.495Z,102546.25
2023-01-04T16:27:40.689Z,102541.38
2023-01-04T16:30:10.731Z,102546.25
2023-01-04T16:32:45.218Z,102535.40
2023-01-04T16:35:13.466Z,102547.66
2023-01-04T16:37:44.835Z,102536.80
2023-01-04T16:40:13.594Z,102532.81
2023-01-04T16:42:41.774Z,102521.07
2023-01-04T16:45:26.197Z,102519.41
2023-01-04T16:47:55.209Z,102517.12
2023-01-04T16:50:23.077Z,102519.63
2023-01-04T16:52:53.911Z,102518.78
2023-01-04T16:55:54.269Z,102522.22
2023-01-04T16:58:22.473Z,102513.91
2023-01-04T17:00:50.691Z,102512.73
2023-01-04T17:03:18.606Z,102510.74
2023-01-04T17:05:46.659Z,102512.73
2023-01-04T17:08:14.774Z,102519.27
2023-01-04T17:10:42.827Z,102520.16
2023-01-04T17:13:10.755Z,102524.15
2023-01-04T17:15:43.344Z,102522.45
2023-01-04T17:18:14.004Z,102510.22
2023-01-04T17:21:35.476Z,102513.06
2023-01-04T17:24:03.943Z,102512.80
2023-01-04T17:26:36.069Z,102517.64
2023-01-04T17:29:04.128Z,102514.17
2023-01-04T17:31:34.661Z,102514.17
2023-01-04T17:34:04.026Z,102509.04
2023-01-04T17:36:32.343Z,102501.33
2023-01-04T17:39:01.640Z,102493.94
2023-01-04T17:41:33.290Z,102489.95
2023-01-04T17:44:03.424Z,102474.84
2023-01-04T17:46:33.229Z,102477.39
2023-01-04T17:49:23.929Z,102472.23
2023-01-04T17:51:58.803Z,102461.14
2023-01-04T17:54:35.848Z,102461.66
2023-01-04T17:57:03.725Z,102454.51
2023-01-04T17:59:31.700Z,102462.22
2023-01-04T18:01:59.992Z,102485.37
2023-01-04T18:04:28.127Z,102483.12
2023-01-04T18:06:56.334Z,102481.38
2023-01-04T18:09:26.157Z,102484.84
2023-01-04T18:11:54.532Z,102485.99
2023-01-04T18:14:23.896Z,102471.41
2023-01-04T18:16:58.677Z,102454.87
2023-01-04T18:19:31.255Z,102445.16
2023-01-04T18:21:59.455Z,102435.77
2023-01-04T18:24:37.814Z,102441.46
2023-01-04T18:27:21.576Z,102446.33
2023-01-04T18:29:50.520Z,102452.02
2023-01-04T18:32:19.350Z,102466.02
2023-01-04T18:34:48.039Z,102460.29
2023-01-04T18:37:19.337Z,102454.27
2023-01-04T18:39:49.199Z,102466.54
2023-01-04T18:42:20.180Z,102469.94
2023-01-04T18:44:51.024Z,102463.30
2023-01-04T18:47:33.205Z,102457.88
2023-01-04T18:53:11.183Z,102445.25
2023-01-04T18:55:42.120Z,102442.08
2023-01-04T18:58:21.426Z,102439.79
2023-01-04T19:00:51.901Z,102440.31
2023-01-04T19:04:59.386Z,102438.02
2023-01-04T19:07:34.202Z,102419.45
2023-01-04T19:10:02.171Z,102419.68
2023-01-04T19:12:34.384Z,102427.95
2023-01-04T19:15:03.639Z,102415.95
2023-01-04T19:20:18.166Z,102403.92
2023-01-04T19:22:46.091Z,102404.45
2023-01-04T19:25:14.298Z,102404.38
2023-01-04T19:30:27.664Z,102425.77
2023-01-04T19:36:45.342Z,102439.73
2023-01-04T19:39:14.951Z,102440.31
2023-01-04T19:41:43.574Z,102428.61
2023-01-04T19:44:24.321Z,102442.57
2023-01-04T19:46:52.427Z,102441.43
2023-01-04T19:49:23.667Z,102443.98
2023-01-04T19:51:52.961Z,102433.94
2023-01-04T19:54:25.094Z,102437.86
2023-01-04T19:56:53.565Z,102443.29
2023-01-04T19:59:21.977Z,102439.82
2023-01-04T20:01:52.758Z,102437.50
2023-01-04T20:04:51.189Z,102435.73
2023-01-04T20:07:41.538Z,102435.15
2023-01-04T20:10:14.566Z,102440.22
2023-01-04T20:12:43.339Z,102438.16
2023-01-04T20:15:18.515Z,102431.29
2023-01-04T20:17:46.712Z,102436.36
2023-01-04T20:26:43.613Z,102431.98
2023-01-04T20:29:12.033Z,102418.57
2023-01-04T20:31:45.358Z,102419.09
2023-01-04T20:34:14.243Z,102426.52
2023-01-04T20:36:43.698Z,102429.88
2023-01-04T20:39:11.685Z,102429.27
2023-01-04T20:41:49.604Z,102418.12
2023-01-04T20:44:20.779Z,102421.84
2023-01-04T20:46:48.936Z,102426.38
2023-01-04T20:49:17.056Z,102427.23
2023-01-04T20:51:45.014Z,102432.63
2023-01-04T20:54:12.917Z,102425.77
2023-01-04T20:56:41.652Z,102433.77
2023-01-04T20:59:11.763Z,102425.77
2023-01-04T21:01:39.967Z,102423.45
2023-01-04T21:04:09.632Z,102426.81
2023-01-04T21:06:45.647Z,102435.61
2023-01-04T21:09:14.788Z,102421.05
2023-01-04T21:11:47.334Z,102424.45
2023-01-04T21:14:15.439Z,102422.10
2023-01-04T21:16:48.762Z,102416.94
2023-01-04T21:19:22.580Z,102403.50
2023-01-04T21:21:52.128Z,102400.36
2023-01-04T21:24:20.625Z,102391.43
2023-01-04T21:26:48.771Z,102395.69
2023-01-04T21:29:16.899Z,102394.54
2023-01-04T21:31:45.782Z,102397.94
2023-01-04T21:34:18.262Z,102410.20
2023-01-04T21:36:49.380Z,102406.21
2023-01-04T21:39:18.468Z,102400.49
2023-01-04T21:41:48.370Z,102414.45
2023-01-04T21:44:16.822Z,102419.00
2023-01-04T21:46:47.930Z,102412.42
2023-01-04T21:49:18.775Z,102405.88
2023-01-04T21:51:47.477Z,102403.56
2023-01-04T21:54:15.586Z,102416.15
2023-01-04T21:59:34.863Z,102428.12
2023-01-04T22:02:03.259Z,102420.99
2023-01-04T22:04:32.408Z,102414.78
2023-01-04T22:10:35.575Z,102414.22
2023-01-04T22:13:12.754Z,102415.70
2023-01-04T22:15:42.669Z,102413.18
2023-01-04T22:18:39.555Z,102417.16
2023-01-04T22:21:10.800Z,102409.45
2023-01-04T22:27:18.027Z,102414.65
2023-01-04T22:30:02.005Z,102415.14
2023-01-04T22:32:59.700Z,102421.41
2023-01-04T22:35:51.828Z,102414.22
2023-01-04T22:41:53.922Z,102415.40
2023-01-04T22:45:11.010Z,102417.91
2023-01-04T22:47:48.805Z,102419.09
2023-01-04T22:47:58.721Z,102416.25
2023-01-04T22:51:20.468Z,102418.02
2023-01-04T22:53:46.771Z,102426.29
2023-01-04T22:56:20.820Z,102442.80
2023-01-04T22:58:53.364Z,102429.69
2023-01-04T23:01:30.669Z,102423.09
2023-01-04T23:03:59.805Z,102416.55
2023-01-04T23:06:28.195Z,102417.72
2023-01-04T23:09:06.451Z,102420.86
2023-01-04T23:11:35.353Z,102430.93
2023-01-04T23:14:04.108Z,102423.21
2023-01-04T23:16:33.374Z,102427.76
2023-01-04T23:19:03.382Z,102424.33
2023-01-04T23:21:31.306Z,102423.51
2023-01-04T23:23:59.743Z,102426.91
2023-01-04T23:26:28.667Z,102415.47
2023-01-04T23:28:57.025Z,102426.91
2023-01-04T23:31:26.019Z,102402.59
2023-01-04T23:33:55.507Z,102390.95
2023-01-04T23:36:26.949Z,102387.22
2023-01-04T23:38:57.157Z,102392.61
2023-01-04T23:41:46.566Z,102375.77
2023-01-04T23:44:25.465Z,102372.93
2023-01-04T23:46:55.632Z,102364.69
2023-01-04T23:49:24.151Z,102367.83
2023-01-04T23:51:52.196Z,102342.45
2023-01-04T23:54:20.210Z,102330.20
2023-01-04T23:56:48.182Z,102336.73
2023-01-04T23:59:16.138Z,102339.91
